createdAt,value
2019-05-01T00:02:25.975Z,21.60
2019-05-01T00:05:12.457Z,19.60
2019-05-01T00:10:46.931Z,22.00
2019-05-01T00:13:14.763Z,21.00
2019-05-01T00:18:49.224Z,25.40
2019-05-01T00:21:17.155Z,21.80
2019-05-01T00:26:38.568Z,19.40
2019-05-01T00:29:06.335Z,24.60
2019-05-01T00:31:34.558Z,22.00
2019-05-01T00:34:02.279Z,23.60
2019-05-01T00:36:30.062Z,23.40
2019-05-01T00:39:16.787Z,21.80
2019-05-01T00:41:44.873Z,26.60
2019-05-01T00:47:04.522Z,27.40
2019-05-01T00:49:32.294Z,22.60
2019-05-01T00:52:18.766Z,28.40
2019-05-01T01:00:42.635Z,16.80
2019-05-01T01:03:01.864Z,22.40
2019-05-01T01:05:29.635Z,21.60
2019-05-01T01:07:57.289Z,23.80
2019-05-01T01:10:25.328Z,23.80
2019-05-01T01:12:52.919Z,24.00
2019-05-01T01:15:22.961Z,26.80
2019-05-01T01:17:50.827Z,26.20
2019-05-01T01:20:18.594Z,24.20
2019-05-01T01:22:46.183Z,29.40
2019-05-01T01:25:17.194Z,22.00
2019-05-01T01:27:44.819Z,25.80
2019-05-01T01:30:12.527Z,23.60
2019-05-01T01:32:41.571Z,24.60
2019-05-01T01:35:12.201Z,26.80
2019-05-01T01:37:39.801Z,26.00
2019-05-01T01:40:12.842Z,22.20
2019-05-01T01:42:41.371Z,18.20
2019-05-01T01:45:30.249Z,22.80
2019-05-01T01:48:17.270Z,17.60
2019-05-01T01:50:45.222Z,22.00
2019-05-01T01:53:12.953Z,26.00
2019-05-01T01:55:40.720Z,24.60
2019-05-01T01:58:27.474Z,22.80
2019-05-01T02:01:13.889Z,19.00
2019-05-01T02:04:00.323Z,26.40
2019-05-01T02:06:46.779Z,22.00
2019-05-01T02:14:54.421Z,19.80
2019-05-01T02:17:22.223Z,24.20
2019-05-01T02:19:49.984Z,27.40
2019-05-01T02:22:36.390Z,14.60
2019-05-01T02:27:57.550Z,23.40
2019-05-01T02:35:48.562Z,19.60
2019-05-01T02:38:16.441Z,23.00
2019-05-01T02:41:02.903Z,22.80
2019-05-01T02:43:49.270Z,20.80
2019-05-01T02:48:52.811Z,31.20
2019-05-01T02:51:19.711Z,21.00
2019-05-01T02:54:06.107Z,23.60
2019-05-01T02:56:52.621Z,21.80
2019-05-01T02:59:20.336Z,25.80
2019-05-01T03:02:06.895Z,26.80
2019-05-01T03:04:34.949Z,25.00
2019-05-01T03:07:21.418Z,19.00
2019-05-01T03:09:49.123Z,19.00
2019-05-01T03:12:16.805Z,21.20
2019-05-01T03:14:44.546Z,22.20
2019-05-01T03:17:30.993Z,35.20
2019-05-01T03:23:10.107Z,22.60
2019-05-01T03:25:56.553Z,21.00
2019-05-01T03:36:17.349Z,21.40
2019-05-01T03:38:45.122Z,28.40
2019-05-01T03:41:12.893Z,21.00
2019-05-01T03:43:59.353Z,22.00
2019-05-01T03:46:27.049Z,30.60
2019-05-01T03:48:54.803Z,22.80
2019-05-01T03:51:41.295Z,25.20
2019-05-01T03:57:14.435Z,25.80
2019-05-01T03:59:42.295Z,30.60
2019-05-01T04:02:33.710Z,32.60
2019-05-01T04:07:30.810Z,27.40
2019-05-01T04:09:58.857Z,35.80
2019-05-01T04:15:13.455Z,30.60
2019-05-01T04:17:59.903Z,30.40
2019-05-01T04:23:05.643Z,25.80
2019-05-01T04:25:52.023Z,27.20
2019-05-01T04:28:38.513Z,19.20
2019-05-01T04:31:24.980Z,20.40
2019-05-01T04:33:54.109Z,29.60
2019-05-01T04:41:34.689Z,27.80
2019-05-01T04:46:50.445Z,26.60
2019-05-01T04:51:51.317Z,32.60
2019-05-01T04:56:51.689Z,28.60
2019-05-01T04:59:38.437Z,27.40
2019-05-01T05:02:24.909Z,25.00
2019-05-01T05:07:39.169Z,20.20
2019-05-01T05:12:58.445Z,25.20
2019-05-01T05:15:44.794Z,24.80
2019-05-01T05:18:12.656Z,24.00
2019-05-01T05:20:59.040Z,22.80
2019-05-01T05:23:27.395Z,17.40
2019-05-01T05:25:55.062Z,18.40
2019-05-01T05:28:23.095Z,18.40
2019-05-01T05:30:50.821Z,26.20
2019-05-01T05:33:19.048Z,25.20
2019-05-01T05:35:47.202Z,24.20
2019-05-01T05:38:33.775Z,28.20
2019-05-01T05:41:03.887Z,20.60
2019-05-01T05:43:32.129Z,32.60
2019-05-01T05:46:00.235Z,40.40
2019-05-01T05:48:28.224Z,29.20
2019-05-01T05:51:08.610Z,29.00
2019-05-01T06:04:39.018Z,40.80
2019-05-01T06:07:25.670Z,45.60
2019-05-01T06:10:12.151Z,43.60
2019-05-01T06:12:58.830Z,36.60
2019-05-01T06:15:45.354Z,33.80
2019-05-01T06:18:34.761Z,39.20
2019-05-01T06:21:19.885Z,28.40
2019-05-01T06:24:07.020Z,35.40
2019-05-01T06:26:39.252Z,43.60
2019-05-01T06:29:05.692Z,37.00
2019-05-01T06:31:33.425Z,36.80
2019-05-01T06:34:04.244Z,38.20
2019-05-01T06:36:33.932Z,36.80
2019-05-01T06:39:01.512Z,39.40
2019-05-01T06:41:40.635Z,33.00
2019-05-01T06:44:13.871Z,41.40
2019-05-01T06:47:12.833Z,38.60
2019-05-01T06:50:01.263Z,41.00
2019-05-01T06:52:32.148Z,34.60
2019-05-01T06:55:02.590Z,28.40
2019-05-01T06:57:30.273Z,40.00
2019-05-01T07:00:16.657Z,35.00
2019-05-01T07:05:35.683Z,29.20
2019-05-01T07:10:43.900Z,30.40
2019-05-01T07:15:39.934Z,43.80
2019-05-01T07:18:29.058Z,22.80
2019-05-01T07:21:01.842Z,33.20
2019-05-01T07:23:52.250Z,28.60
2019-05-01T07:29:22.829Z,35.40
2019-05-01T07:32:09.266Z,40.80
2019-05-01T07:34:56.827Z,42.20
2019-05-01T07:37:57.639Z,30.00
2019-05-01T07:40:14.102Z,33.60
2019-05-01T07:42:48.179Z,37.00
2019-05-01T07:45:32.301Z,28.40
2019-05-01T07:48:00.961Z,41.40
2019-05-01T07:50:32.793Z,36.60
2019-05-01T07:53:01.611Z,34.00
2019-05-01T07:55:48.646Z,38.80
2019-05-01T07:58:19.162Z,32.60
2019-05-01T08:03:56.811Z,34.40
2019-05-01T08:06:24.569Z,30.60
2019-05-01T08:09:14.897Z,38.40
2019-05-01T08:11:44.065Z,37.40
2019-05-01T08:14:11.964Z,36.40
2019-05-01T08:22:14.601Z,35.60
2019-05-01T08:24:42.333Z,45.60
2019-05-01T08:30:07.116Z,35.20
2019-05-01T08:35:40.682Z,37.20
2019-05-01T08:38:08.440Z,45.00
2019-05-01T08:40:55.564Z,46.40
2019-05-01T08:46:29.991Z,28.80
2019-05-01T08:49:16.396Z,37.00
2019-05-01T08:52:04.817Z,29.60
2019-05-01T09:03:07.625Z,39.00
2019-05-01T09:05:29.110Z,29.80
2019-05-01T09:10:41.093Z,37.00
2019-05-01T09:13:09.116Z,40.20
2019-05-01T09:15:36.834Z,32.80
2019-05-01T09:21:12.826Z,43.00
2019-05-01T09:23:40.583Z,52.20
2019-05-01T09:26:27.093Z,46.80
2019-05-01T09:31:47.100Z,55.20
2019-05-01T09:34:20.717Z,53.20
2019-05-01T09:36:53.335Z,50.60
2019-05-01T09:39:25.591Z,42.20
2019-05-01T09:41:53.323Z,35.00
2019-05-01T09:44:21.057Z,35.80
2019-05-01T09:46:49.016Z,30.80
2019-05-01T09:49:20.067Z,35.00
2019-05-01T09:52:03.116Z,35.60
2019-05-01T09:54:47.915Z,38.80
2019-05-01T09:57:15.903Z,41.00
2019-05-01T09:59:43.612Z,39.80
2019-05-01T10:02:14.043Z,37.40
2019-05-01T10:04:42.046Z,30.20
2019-05-01T10:07:14.206Z,37.60
2019-05-01T10:09:42.222Z,32.60
2019-05-01T10:12:11.521Z,49.20
2019-05-01T10:14:39.543Z,38.00
2019-05-01T10:17:07.313Z,39.60
2019-05-01T10:19:37.892Z,42.80
2019-05-01T10:22:05.653Z,42.60
2019-05-01T10:24:37.675Z,35.20
2019-05-01T10:27:06.147Z,47.80
2019-05-01T10:29:56.857Z,35.20
2019-05-01T10:32:46.665Z,37.40
2019-05-01T10:35:42.500Z,44.20
2019-05-01T10:38:09.467Z,51.00
2019-05-01T10:40:34.443Z,41.00
2019-05-01T10:43:09.858Z,55.20
2019-05-01T10:45:37.644Z,47.60
2019-05-01T10:48:05.344Z,47.40
2019-05-01T10:50:33.337Z,42.40
2019-05-01T10:53:01.116Z,51.00
2019-05-01T10:55:33.076Z,49.60
2019-05-01T10:58:04.579Z,49.80
2019-05-01T11:00:41.260Z,56.20
2019-05-01T11:03:09.292Z,39.20
2019-05-01T11:05:40.806Z,59.40
2019-05-01T11:08:09.678Z,35.00
2019-05-01T11:10:38.057Z,45.20
2019-05-01T11:13:07.933Z,58.80
2019-05-01T11:15:35.824Z,47.60
2019-05-01T11:18:05.684Z,51.80
2019-05-01T11:20:33.383Z,47.80
2019-05-01T11:23:01.054Z,49.60
2019-05-01T11:25:36.597Z,49.80
2019-05-01T11:28:04.457Z,44.40
2019-05-01T11:30:32.227Z,55.00
2019-05-01T11:33:30.918Z,48.80
2019-05-01T11:36:29.394Z,47.20
2019-05-01T11:39:21.225Z,44.40
2019-05-01T11:41:59.574Z,45.60
2019-05-01T11:44:30.027Z,56.20
2019-05-01T11:46:57.762Z,51.40
2019-05-01T11:49:25.452Z,50.80
2019-05-01T11:51:53.426Z,56.00
2019-05-01T11:54:24.183Z,46.60
2019-05-01T11:56:51.797Z,35.40
2019-05-01T11:59:19.781Z,56.20
2019-05-01T12:01:52.018Z,42.20
2019-05-01T12:04:19.777Z,58.00
2019-05-01T12:06:47.779Z,50.20
2019-05-01T12:09:15.866Z,44.20
2019-05-01T12:11:45.102Z,48.80
2019-05-01T12:14:13.546Z,39.80
2019-05-01T12:16:58.750Z,49.80
2019-05-01T12:19:26.927Z,53.40
2019-05-01T12:21:57.227Z,54.40
2019-05-01T12:24:25.652Z,57.20
2019-05-01T12:26:53.725Z,55.60
2019-05-01T12:29:21.352Z,46.60
2019-05-01T12:31:50.966Z,55.80
2019-05-01T12:34:25.793Z,45.80
2019-05-01T12:37:12.265Z,53.00
2019-05-01T12:39:40.246Z,51.80
2019-05-01T12:42:07.985Z,45.40
2019-05-01T12:44:37.118Z,56.00
2019-05-01T12:47:11.651Z,56.00
2019-05-01T12:49:39.340Z,55.20
2019-05-01T12:52:11.705Z,56.00
2019-05-01T12:54:48.675Z,55.80
2019-05-01T12:57:20.018Z,59.60
2019-05-01T13:00:07.905Z,56.40
2019-05-01T13:02:29.341Z,49.80
2019-05-01T13:04:58.366Z,60.20
2019-05-01T13:07:26.115Z,54.80
2019-05-01T13:09:54.097Z,54.80
2019-05-01T13:12:25.455Z,47.00
2019-05-01T13:14:52.882Z,58.20
2019-05-01T13:17:20.945Z,54.80
2019-05-01T13:19:53.924Z,52.20
2019-05-01T13:22:23.943Z,41.40
2019-05-01T13:24:52.094Z,58.20
2019-05-01T13:27:28.432Z,46.80
2019-05-01T13:30:09.605Z,57.00
2019-05-01T13:32:48.036Z,56.80
2019-05-01T13:35:15.698Z,45.20
2019-05-01T13:37:43.838Z,55.20
2019-05-01T13:40:11.609Z,47.40
2019-05-01T13:42:39.635Z,57.20
2019-05-01T13:45:07.760Z,52.00
2019-05-01T13:47:37.421Z,53.60
2019-05-01T13:50:05.087Z,49.80
2019-05-01T13:52:36.236Z,54.40
2019-05-01T13:55:03.932Z,52.00
2019-05-01T13:57:31.686Z,49.20
2019-05-01T13:59:59.695Z,59.00
2019-05-01T14:02:27.505Z,54.20
2019-05-01T14:04:57.545Z,59.00
2019-05-01T14:07:25.888Z,49.20
2019-05-01T14:09:53.617Z,55.20
2019-05-01T14:12:24.153Z,53.00
2019-05-01T14:14:52.242Z,57.60
2019-05-01T14:17:27.385Z,55.60
2019-05-01T14:20:07.506Z,43.80
2019-05-01T14:22:44.579Z,48.00
2019-05-01T14:25:12.751Z,47.20
2019-05-01T14:27:44.835Z,51.40
2019-05-01T14:30:15.148Z,50.80
2019-05-01T14:32:42.811Z,46.80
2019-05-01T14:35:13.057Z,46.40
2019-05-01T14:37:43.744Z,49.40
2019-05-01T14:40:11.882Z,48.20
2019-05-01T14:42:39.514Z,50.20
2019-05-01T14:45:07.665Z,43.40
2019-05-01T14:47:37.855Z,45.20
2019-05-01T14:50:06.694Z,52.20
2019-05-01T14:52:37.705Z,50.40
2019-05-01T14:55:07.487Z,50.20
2019-05-01T14:57:36.131Z,58.40
2019-05-01T15:00:04.169Z,55.40
2019-05-01T15:02:37.953Z,48.40
2019-05-01T15:05:05.624Z,57.20
2019-05-01T15:07:43.374Z,44.80
2019-05-01T15:10:03.198Z,51.80
2019-05-01T15:12:37.280Z,43.80
2019-05-01T15:15:14.338Z,53.20
2019-05-01T15:17:48.904Z,41.60
2019-05-01T15:20:21.632Z,54.20
2019-05-01T15:22:52.458Z,52.80
2019-05-01T15:25:22.547Z,52.80
2019-05-01T15:27:56.530Z,45.40
2019-05-01T15:30:24.359Z,44.40
2019-05-01T15:32:52.523Z,51.40
2019-05-01T15:35:20.622Z,52.80
2019-05-01T15:37:56.527Z,54.40
2019-05-01T15:40:29.805Z,59.00
2019-05-01T15:43:02.599Z,54.00
2019-05-01T15:45:30.365Z,53.00
2019-05-01T15:47:58.125Z,49.20
2019-05-01T15:50:28.044Z,52.00
2019-05-01T15:52:57.513Z,56.60
2019-05-01T15:55:31.239Z,48.40
2019-05-01T15:57:59.293Z,52.40
2019-05-01T16:00:29.000Z,54.20
2019-05-01T16:02:56.742Z,41.60
2019-05-01T16:05:24.715Z,47.20
2019-05-01T16:07:52.357Z,39.40
2019-05-01T16:10:24.288Z,49.60
2019-05-01T16:12:57.309Z,54.00
2019-05-01T16:15:30.243Z,56.40
2019-05-01T16:17:59.481Z,56.40
2019-05-01T16:20:34.213Z,52.80
2019-05-01T16:23:01.951Z,54.60
2019-05-01T16:25:34.039Z,51.60
2019-05-01T16:28:01.765Z,46.60
2019-05-01T16:30:29.419Z,52.60
2019-05-01T16:32:57.460Z,53.40
2019-05-01T16:35:25.151Z,44.60
2019-05-01T16:37:52.912Z,50.20
2019-05-01T16:40:33.763Z,54.00
2019-05-01T16:43:02.525Z,50.00
2019-05-01T16:45:30.530Z,53.20
2019-05-01T16:47:58.645Z,56.60
2019-05-01T16:50:35.065Z,45.80
2019-05-01T16:53:00.716Z,46.60
2019-05-01T16:55:28.474Z,53.40
2019-05-01T16:57:57.357Z,57.20
2019-05-01T17:00:29.894Z,52.00
2019-05-01T17:03:21.285Z,58.40
2019-05-01T17:06:02.169Z,60.60
2019-05-01T17:08:58.441Z,58.60
2019-05-01T17:11:32.907Z,66.80
2019-05-01T17:14:00.849Z,42.00
2019-05-01T17:16:30.342Z,55.20
2019-05-01T17:19:05.535Z,50.00
2019-05-01T17:21:32.117Z,57.60
2019-05-01T17:24:02.359Z,47.40
2019-05-01T17:26:30.223Z,62.00
2019-05-01T17:28:58.343Z,61.20
2019-05-01T17:31:27.481Z,56.20
2019-05-01T17:33:55.618Z,58.40
2019-05-01T17:36:27.307Z,50.40
2019-05-01T17:38:55.269Z,58.40
2019-05-01T17:41:27.250Z,48.40
2019-05-01T17:43:59.896Z,58.40
2019-05-01T17:46:30.074Z,58.20
2019-05-01T17:48:57.760Z,56.60
2019-05-01T17:51:25.500Z,60.40
2019-05-01T17:53:56.415Z,57.80
2019-05-01T17:56:28.290Z,48.60
2019-05-01T17:58:53.397Z,57.40
2019-05-01T18:01:39.061Z,57.60
2019-05-01T18:04:37.630Z,41.60
2019-05-01T18:07:07.640Z,47.40
2019-05-01T18:09:37.869Z,52.40
2019-05-01T18:12:08.236Z,44.60
2019-05-01T18:14:36.321Z,57.80
2019-05-01T18:17:04.699Z,48.40
2019-05-01T18:19:33.567Z,57.80
2019-05-01T18:22:18.351Z,50.40
2019-05-01T18:25:16.733Z,48.40
2019-05-01T18:28:09.497Z,47.00
2019-05-01T18:30:40.161Z,54.80
2019-05-01T18:33:09.797Z,44.60
2019-05-01T18:35:40.581Z,56.40
2019-05-01T18:38:34.107Z,51.80
2019-05-01T18:41:20.324Z,52.40
2019-05-01T18:43:49.627Z,43.60
2019-05-01T18:46:26.236Z,51.20
2019-05-01T18:48:54.207Z,48.00
2019-05-01T18:51:21.861Z,52.20
2019-05-01T18:53:57.429Z,56.00
2019-05-01T18:56:21.705Z,42.20
2019-05-01T18:58:49.475Z,44.40
2019-05-01T19:01:17.177Z,49.60
2019-05-01T19:03:45.216Z,44.80
2019-05-01T19:06:12.808Z,58.40
2019-05-01T19:09:15.056Z,49.40
2019-05-01T19:11:29.084Z,54.60
2019-05-01T19:19:04.091Z,55.40
2019-05-01T19:24:24.834Z,44.60
2019-05-01T19:26:52.601Z,60.20
2019-05-01T19:29:20.608Z,50.80
2019-05-01T19:31:49.399Z,51.60
2019-05-01T19:34:17.178Z,47.40
2019-05-01T19:36:54.293Z,52.00
2019-05-01T19:39:22.331Z,46.20
2019-05-01T19:41:54.674Z,46.00
2019-05-01T19:44:22.549Z,44.00
2019-05-01T19:46:54.882Z,52.60
2019-05-01T19:49:29.466Z,54.20
2019-05-01T19:54:29.804Z,59.80
2019-05-01T19:56:57.054Z,44.80
2019-05-01T19:59:26.750Z,46.40
2019-05-01T20:02:17.315Z,50.00
2019-05-01T20:05:01.297Z,49.20
2019-05-01T20:07:51.145Z,48.80
2019-05-01T20:10:17.130Z,36.00
2019-05-01T20:13:17.943Z,36.60
2019-05-01T20:15:53.963Z,53.40
2019-05-01T20:18:40.457Z,51.00
2019-05-01T20:21:26.869Z,46.60
2019-05-01T20:24:13.366Z,52.80
2019-05-01T20:26:41.135Z,37.80
2019-05-01T20:29:27.620Z,43.20
2019-05-01T20:40:10.368Z,46.80
2019-05-01T20:45:05.378Z,49.00
2019-05-01T20:47:35.264Z,58.00
2019-05-01T20:50:05.139Z,54.80
2019-05-01T20:52:33.104Z,52.60
2019-05-01T20:57:55.370Z,40.40
2019-05-01T21:03:18.151Z,46.00
2019-05-01T21:06:16.338Z,43.60
2019-05-01T21:09:08.305Z,56.80
2019-05-01T21:14:15.210Z,51.40
2019-05-01T21:19:35.310Z,50.60
2019-05-01T21:22:04.047Z,45.80
2019-05-01T21:24:31.772Z,51.20
2019-05-01T21:27:18.246Z,54.20
2019-05-01T21:32:26.107Z,51.20
2019-05-01T21:34:50.675Z,43.00
2019-05-01T21:37:18.300Z,48.00
2019-05-01T21:39:46.189Z,51.60
2019-05-01T21:42:32.719Z,49.60
2019-05-01T21:45:00.362Z,64.00
2019-05-01T21:47:29.974Z,55.00
2019-05-01T21:50:17.790Z,40.20
2019-05-01T21:58:37.391Z,46.60
2019-05-01T22:01:06.358Z,49.40
2019-05-01T22:03:35.886Z,50.80
2019-05-01T22:06:03.644Z,46.00
2019-05-01T22:08:34.626Z,64.00
2019-05-01T22:11:21.137Z,61.60
2019-05-01T22:19:20.313Z,49.20
2019-05-01T22:22:07.042Z,52.00
2019-05-01T22:24:43.158Z,44.00
2019-05-01T22:27:17.663Z,44.60
2019-05-01T22:32:43.057Z,56.20
2019-05-01T22:35:29.530Z,52.80
2019-05-01T22:38:16.163Z,52.80
2019-05-01T22:41:06.691Z,25.60
2019-05-01T22:43:50.677Z,50.60
2019-05-01T22:48:57.076Z,32.00
2019-05-01T22:51:25.033Z,45.60
2019-05-01T22:54:11.508Z,49.40
2019-05-01T22:56:39.245Z,32.20
2019-05-01T23:04:37.370Z,48.20
2019-05-01T23:07:23.786Z,43.80
2019-05-01T23:09:51.514Z,42.20
2019-05-01T23:12:38.208Z,42.00
2019-05-01T23:15:25.032Z,38.80
2019-05-01T23:23:19.461Z,49.00
2019-05-01T23:25:47.494Z,38.20
2019-05-01T23:28:15.359Z,44.60
2019-05-01T23:33:29.769Z,39.40
2019-05-01T23:35:58.546Z,37.80
2019-05-01T23:46:05.995Z,36.60
2019-05-01T23:48:33.760Z,37.40
2019-05-01T23:51:01.412Z,36.60
2019-05-01T23:53:49.330Z,41.80
2019-05-01T23:56:36.385Z,30.80
